Time;durP1;ratioP1;P1;durP2;ratioP2;P2;SDS_P1;SDS_P2;PMS_P1;PMS_P2;Temp;Humidity;BMP_temperature;BMP_pressure;BME280_temperature;BME280_humidity;BME280_pressure;Samples;Min_cycle;Max_cycle;Signal;HPM_P1;HPM_P2
2022/03/02 00:00:18;;;;;;;12.43;9.80;;;-1.70;99.90;;;;;;5068049;28;20502;-53
2022/03/02 00:02:44;;;;;;;14.77;9.90;;;-1.70;99.90;;;;;;5065328;28;20473;-52
2022/03/02 00:05:13;;;;;;;12.50;9.60;;;-1.70;99.90;;;;;;5070008;28;20454;-52
2022/03/02 00:07:40;;;;;;;11.23;9.50;;;-1.70;99.90;;;;;;5058993;28;20517;-52
2022/03/02 00:10:09;;;;;;;12.27;9.70;;;-1.70;99.90;;;;;;5062691;28;20491;-52
2022/03/02 00:12:36;;;;;;;14.70;9.63;;;-1.80;99.90;;;;;;5067642;28;20530;-52
2022/03/02 00:15:03;;;;;;;16.40;10.17;;;-1.80;99.90;;;;;;5073880;28;20458;-51
2022/03/02 00:17:30;;;;;;;15.20;9.10;;;-1.70;99.90;;;;;;5065215;28;20497;-52
2022/03/02 00:19:56;;;;;;;17.53;10.83;;;-1.70;99.90;;;;;;5058861;28;20519;-52
2022/03/02 00:22:23;;;;;;;11.47;9.83;;;-1.70;99.90;;;;;;5069536;28;20472;-53
2022/03/02 00:24:51;;;;;;;14.57;11.53;;;-1.70;99.90;;;;;;5067217;28;20459;-52
2022/03/02 00:27:23;;;;;;;13.00;9.53;;;-1.60;99.90;;;;;;5065488;28;20488;-52
2022/03/02 00:29:49;;;;;;;19.57;10.23;;;-1.60;99.90;;;;;;5063624;28;20468;-52
2022/03/02 00:32:16;;;;;;;14.07;9.83;;;-1.60;99.90;;;;;;5068253;28;20526;-52
2022/03/02 00:34:43;;;;;;;12.90;10.27;;;-1.60;99.90;;;;;;5072110;28;20461;-53
2022/03/02 00:37:10;;;;;;;12.93;9.90;;;-1.60;99.90;;;;;;5073683;28;20467;-53
2022/03/02 00:39:37;;;;;;;12.47;9.47;;;-1.60;99.90;;;;;;5068276;28;20491;-52
2022/03/02 00:42:06;;;;;;;15.53;10.93;;;-1.50;99.90;;;;;;5058784;28;20559;-52
2022/03/02 00:44:34;;;;;;;16.10;11.67;;;-1.50;99.90;;;;;;5055742;28;20453;-52
2022/03/02 00:47:01;;;;;;;12.00;9.77;;;-1.60;99.90;;;;;;5070637;28;20519;-52
2022/03/02 00:49:31;;;;;;;16.80;10.87;;;-1.60;99.90;;;;;;5063595;28;20464;-53
2022/03/02 00:51:59;;;;;;;18.47;11.40;;;-1.50;99.90;;;;;;5069815;28;21012;-51
2022/03/02 00:54:25;;;;;;;19.27;11.53;;;-1.50;99.90;;;;;;5072006;28;20534;-52
2022/03/02 00:56:52;;;;;;;17.93;10.80;;;-1.60;99.90;;;;;;5068771;28;20874;-52
2022/03/02 00:59:19;;;;;;;12.13;10.27;;;-1.50;99.90;;;;;;5070426;28;20996;-52
2022/03/02 01:01:46;;;;;;;13.37;10.63;;;-1.50;99.90;;;;;;5063849;28;20477;-51
2022/03/02 01:04:13;;;;;;;12.23;9.70;;;-1.60;99.90;;;;;;5066272;28;20457;-52
2022/03/02 01:06:40;;;;;;;13.23;10.97;;;-1.60;99.90;;;;;;5069142;28;21055;-52
2022/03/02 01:09:06;;;;;;;14.00;9.97;;;-1.60;99.90;;;;;;5073360;28;20880;-52
2022/03/02 01:11:33;;;;;;;14.60;10.30;;;-1.60;99.90;;;;;;5062413;28;20461;-52
2022/03/02 01:14:00;;;;;;;13.07;9.47;;;-1.50;99.90;;;;;;5056702;28;20469;-52
2022/03/02 01:16:26;;;;;;;15.57;10.60;;;-1.50;99.90;;;;;;5070878;28;20456;-52
2022/03/02 01:18:54;;;;;;;17.80;11.70;;;-1.50;99.90;;;;;;5073740;28;20518;-52
2022/03/02 01:21:21;;;;;;;13.63;9.80;;;-1.50;99.90;;;;;;5062077;28;20456;-52
2022/03/02 01:23:48;;;;;;;19.73;9.87;;;-1.50;99.90;;;;;;5054406;28;20474;-51
2022/03/02 01:26:15;;;;;;;14.50;10.43;;;-1.50;99.90;;;;;;5066474;28;20458;-51
2022/03/02 01:28:42;;;;;;;12.50;9.70;;;-1.50;99.90;;;;;;5067547;28;20466;-51
2022/03/02 01:31:08;;;;;;;16.37;10.70;;;-1.50;99.90;;;;;;5073233;28;20457;-52
2022/03/02 01:33:35;;;;;;;11.20;9.57;;;-1.40;99.90;;;;;;5071723;28;20464;-51
2022/03/02 01:36:03;;;;;;;16.63;10.73;;;-1.40;99.90;;;;;;5065296;28;20458;-51
2022/03/02 01:38:29;;;;;;;16.13;11.33;;;-1.40;99.90;;;;;;5061158;28;20437;-52
2022/03/02 01:40:56;;;;;;;14.67;10.70;;;-1.40;99.90;;;;;;5068450;28;20505;-52
2022/03/02 01:43:27;;;;;;;17.07;11.47;;;-1.40;99.90;;;;;;5073097;28;20461;-52
2022/03/02 01:45:54;;;;;;;16.40;10.43;;;-1.40;99.90;;;;;;5066424;28;20483;-52
2022/03/02 01:48:20;;;;;;;16.70;10.73;;;-1.40;99.90;;;;;;5072051;28;20476;-53
2022/03/02 01:50:47;;;;;;;14.10;10.50;;;-1.30;99.90;;;;;;5065815;28;20508;-52
2022/03/02 01:53:15;;;;;;;17.60;10.93;;;-1.40;99.90;;;;;;5067441;28;21058;-52
2022/03/02 01:55:42;;;;;;;15.63;9.77;;;-1.40;99.90;;;;;;5065335;28;20469;-52
2022/03/02 01:58:10;;;;;;;13.53;10.33;;;-1.40;99.90;;;;;;5073545;28;20457;-52
2022/03/02 02:00:37;;;;;;;16.20;10.37;;;-1.40;99.90;;;;;;5065112;28;20470;-53
2022/03/02 02:03:03;;;;;;;21.63;12.40;;;-1.40;99.90;;;;;;5069316;28;20595;-52
2022/03/02 02:05:30;;;;;;;15.80;10.57;;;-1.30;99.90;;;;;;5063386;28;20516;-52
2022/03/02 02:07:57;;;;;;;14.97;11.20;;;-1.30;99.90;;;;;;5063904;28;20476;-52
2022/03/02 02:10:25;;;;;;;12.90;10.77;;;-1.30;99.90;;;;;;5062844;28;20469;-53
2022/03/02 02:12:52;;;;;;;16.57;10.80;;;-1.20;99.90;;;;;;5072383;28;20475;-53
2022/03/02 02:15:18;;;;;;;16.63;11.30;;;-1.20;99.90;;;;;;5060036;28;20528;-52
2022/03/02 02:17:45;;;;;;;14.50;10.87;;;-1.30;99.90;;;;;;5074884;28;20440;-53
2022/03/02 02:20:13;;;;;;;19.87;10.80;;;-1.40;99.90;;;;;;5068872;28;20446;-52
2022/03/02 02:22:42;;;;;;;15.20;10.43;;;-1.40;99.90;;;;;;5069434;22;20481;-52
2022/03/02 02:25:09;;;;;;;13.27;10.70;;;-1.40;99.90;;;;;;5051641;28;20492;-53
2022/03/02 02:27:36;;;;;;;16.10;10.50;;;-1.40;99.90;;;;;;5051673;28;20520;-52
2022/03/02 02:30:05;;;;;;;13.40;9.77;;;-1.40;99.90;;;;;;5052473;28;20847;-52
2022/03/02 02:32:31;;;;;;;15.27;10.83;;;-1.40;99.90;;;;;;5053053;28;20515;-52
2022/03/02 02:34:58;;;;;;;13.93;10.03;;;-1.40;99.90;;;;;;5069010;28;21010;-52
2022/03/02 02:37:26;;;;;;;20.20;11.63;;;-1.30;99.90;;;;;;5064137;28;20441;-52
2022/03/02 02:39:59;;;;;;;14.23;10.90;;;-1.30;99.90;;;;;;5067515;28;20515;-52
2022/03/02 02:42:26;;;;;;;15.57;10.40;;;-1.20;99.90;;;;;;5069887;28;20466;-53
2022/03/02 02:44:53;;;;;;;15.40;11.50;;;-1.20;99.90;;;;;;5067053;28;20462;-53
2022/03/02 02:47:20;;;;;;;11.10;9.73;;;-1.20;99.90;;;;;;5071672;28;20506;-53
2022/03/02 02:49:46;;;;;;;16.17;11.47;;;-1.20;99.90;;;;;;5070353;28;20965;-52
2022/03/02 02:52:13;;;;;;;14.80;11.03;;;-1.20;99.90;;;;;;5066916;28;20551;-52
2022/03/02 02:54:41;;;;;;;16.17;11.47;;;-1.20;99.90;;;;;;5069375;28;20468;-52
2022/03/02 02:57:10;;;;;;;19.13;11.90;;;-1.30;99.90;;;;;;5063053;28;20951;-52
2022/03/02 02:59:37;;;;;;;17.60;12.03;;;-1.30;99.90;;;;;;5061216;28;20946;-53
2022/03/02 03:02:04;;;;;;;17.40;11.93;;;-1.20;99.90;;;;;;5067840;28;20457;-52
2022/03/02 03:04:30;;;;;;;17.57;12.03;;;-1.20;99.90;;;;;;5068921;28;21009;-52
2022/03/02 03:06:57;;;;;;;14.57;11.07;;;-1.10;99.90;;;;;;5067103;28;20523;-53
2022/03/02 03:09:23;;;;;;;16.97;11.87;;;-1.10;99.90;;;;;;5071142;28;20444;-51
2022/03/02 03:11:50;;;;;;;16.33;11.87;;;-1.10;99.90;;;;;;5067816;28;20518;-52
2022/03/02 03:14:18;;;;;;;14.80;11.20;;;-1.00;99.90;;;;;;5071004;28;20836;-52
2022/03/02 03:16:45;;;;;;;17.23;13.20;;;-1.00;99.90;;;;;;5070179;28;20522;-52
2022/03/02 03:19:12;;;;;;;17.00;12.33;;;-0.90;99.90;;;;;;5067681;28;20965;-53
2022/03/02 03:21:39;;;;;;;15.00;12.30;;;-0.90;99.90;;;;;;5069726;28;20461;-52
2022/03/02 03:24:06;;;;;;;16.80;12.13;;;-0.90;99.90;;;;;;5069389;28;21062;-53
2022/03/02 03:26:32;;;;;;;21.87;12.50;;;-0.90;99.90;;;;;;5069213;28;20465;-53
2022/03/02 03:28:59;;;;;;;21.40;12.50;;;-0.90;99.90;;;;;;5063778;28;20512;-52
2022/03/02 03:31:27;;;;;;;16.53;12.30;;;-0.80;99.90;;;;;;5068077;28;20510;-53
2022/03/02 03:33:54;;;;;;;20.50;12.83;;;-0.80;99.90;;;;;;5070836;28;20477;-53
2022/03/02 03:36:20;;;;;;;22.07;13.30;;;-0.70;99.90;;;;;;5070501;28;20852;-52
2022/03/02 03:38:47;;;;;;;21.27;14.00;;;-0.70;99.90;;;;;;5064479;28;20457;-53
2022/03/02 03:41:14;;;;;;;16.90;12.13;;;-0.70;99.90;;;;;;5067782;28;20885;-53
2022/03/02 03:43:40;;;;;;;17.73;12.00;;;-0.70;99.90;;;;;;5071984;28;20828;-53
2022/03/02 03:46:08;;;;;;;19.60;13.97;;;-0.70;99.90;;;;;;5064971;28;20498;-52
2022/03/02 03:48:36;;;;;;;14.87;12.43;;;-0.70;99.90;;;;;;5070574;28;20481;-52
2022/03/02 03:51:02;;;;;;;20.30;13.53;;;-0.70;99.90;;;;;;5069338;28;20511;-52
2022/03/02 03:53:29;;;;;;;19.70;12.60;;;-0.70;99.90;;;;;;5071973;28;20469;-52
2022/03/02 03:55:55;;;;;;;21.10;12.80;;;-0.70;99.90;;;;;;5059203;28;20500;-53
2022/03/02 03:58:22;;;;;;;17.73;12.40;;;-0.70;99.90;;;;;;5071838;28;20870;-52
2022/03/02 04:00:49;;;;;;;20.30;13.53;;;-0.60;99.90;;;;;;5069159;28;20461;-52
2022/03/02 04:03:15;;;;;;;20.00;13.47;;;-0.70;99.90;;;;;;5070753;28;20485;-53
2022/03/02 04:05:43;;;;;;;20.70;13.97;;;-0.70;99.90;;;;;;5066659;28;20461;-52
2022/03/02 04:08:11;;;;;;;17.90;12.90;;;-0.70;99.90;;;;;;5067508;28;20484;-52
2022/03/02 04:10:38;;;;;;;17.50;12.60;;;-0.70;99.90;;;;;;5065068;28;20461;-52
2022/03/02 04:13:05;;;;;;;17.17;13.30;;;-0.70;99.90;;;;;;5068003;28;20516;-53
2022/03/02 04:15:32;;;;;;;22.13;13.80;;;-0.70;99.90;;;;;;5063742;28;20518;-51
2022/03/02 04:17:58;;;;;;;14.43;11.57;;;-0.80;99.90;;;;;;5070589;28;20461;-53
2022/03/02 04:20:25;;;;;;;17.23;12.70;;;-0.70;99.90;;;;;;5072014;28;20502;-52
2022/03/02 04:22:53;;;;;;;24.03;13.00;;;-0.70;99.90;;;;;;5066456;28;20493;-52
2022/03/02 04:25:20;;;;;;;20.57;14.53;;;-0.70;99.90;;;;;;5068037;28;20935;-53
2022/03/02 04:27:46;;;;;;;22.27;14.57;;;-0.70;99.90;;;;;;5066868;28;20484;-53
2022/03/02 04:30:14;;;;;;;21.20;13.53;;;-0.70;99.90;;;;;;5066595;28;20518;-52
2022/03/02 04:32:40;;;;;;;17.37;12.30;;;-0.70;99.90;;;;;;5068066;28;20465;-52
2022/03/02 04:35:10;;;;;;;21.83;14.43;;;-0.70;99.90;;;;;;5071722;28;20444;-53
2022/03/02 04:37:37;;;;;;;25.57;14.17;;;-0.70;99.90;;;;;;5070437;28;20548;-52
2022/03/02 04:40:07;;;;;;;23.63;13.70;;;-0.70;99.90;;;;;;5062489;28;20462;-53
2022/03/02 04:42:34;;;;;;;17.00;12.83;;;-0.60;99.90;;;;;;5060438;28;20511;-52
2022/03/02 04:45:00;;;;;;;23.63;13.50;;;-0.60;99.90;;;;;;5061280;28;20468;-52
2022/03/02 04:47:27;;;;;;;19.80;14.07;;;-0.60;99.90;;;;;;5070900;28;20985;-52
2022/03/02 04:49:53;;;;;;;20.37;15.00;;;-0.60;99.90;;;;;;5062657;28;20460;-53
2022/03/02 04:52:20;;;;;;;21.80;13.40;;;-0.60;99.90;;;;;;5059768;28;20931;-53
2022/03/02 04:57:29;;;;;;;26.57;13.77;;;-0.60;99.90;;;;;;5063998;28;20434;-52
2022/03/02 04:59:55;;;;;;;18.30;13.80;;;-0.70;99.90;;;;;;5062126;28;20465;-52
2022/03/02 05:02:22;;;;;;;17.33;12.67;;;-0.70;99.90;;;;;;5063715;28;20514;-52
2022/03/02 05:04:50;;;;;;;18.13;13.63;;;-0.70;99.90;;;;;;5066127;28;20489;-52
2022/03/02 05:07:16;;;;;;;19.73;13.10;;;-0.60;99.90;;;;;;5067372;28;20467;-52
2022/03/02 05:09:43;;;;;;;23.00;13.73;;;-0.70;99.90;;;;;;5070888;28;20531;-53
2022/03/02 05:12:10;;;;;;;25.17;14.17;;;-0.60;99.90;;;;;;5063312;28;20817;-53
2022/03/02 05:14:38;;;;;;;17.63;13.60;;;-0.60;99.90;;;;;;5059385;28;20523;-53
2022/03/02 05:17:05;;;;;;;19.20;13.30;;;-0.50;99.90;;;;;;5070114;28;20456;-52
2022/03/02 05:19:33;;;;;;;21.20;14.10;;;-0.40;99.90;;;;;;5072385;28;20457;-52
2022/03/02 05:22:00;;;;;;;23.30;15.03;;;-0.30;99.90;;;;;;5070379;28;20539;-52
2022/03/02 05:24:27;;;;;;;23.30;15.80;;;-0.30;99.90;;;;;;5072476;28;20484;-52
2022/03/02 05:26:53;;;;;;;26.63;16.10;;;-0.30;99.90;;;;;;5068550;28;20510;-53
2022/03/02 05:29:20;;;;;;;26.70;17.50;;;-0.30;99.90;;;;;;5066166;28;20480;-52
2022/03/02 05:31:48;;;;;;;24.20;16.77;;;-0.20;99.90;;;;;;5073806;28;21013;-52
2022/03/02 05:34:14;;;;;;;23.57;17.73;;;-0.20;90.20;;;;;;5072489;28;20480;-52
2022/03/02 05:36:41;;;;;;;24.10;17.37;;;-0.10;96.20;;;;;;5066912;28;20517;-52
2022/03/02 05:39:08;;;;;;;27.50;18.37;;;0.00;21.30;;;;;;5070421;28;20511;-52
2022/03/02 05:41:34;;;;;;;25.33;17.63;;;0.00;21.40;;;;;;5079846;28;20457;-54
2022/03/02 05:44:02;;;;;;;34.90;18.10;;;-0.10;71.70;;;;;;5085652;28;20543;-53
2022/03/02 05:46:28;;;;;;;28.37;19.40;;;0.00;23.10;;;;;;5079246;28;20464;-53
2022/03/02 05:48:56;;;;;;;27.17;19.13;;;0.00;27.10;;;;;;5085613;28;20512;-52
2022/03/02 05:51:23;;;;;;;27.83;19.93;;;0.10;30.60;;;;;;5086100;28;20966;-52
2022/03/02 05:53:49;;;;;;;30.40;20.10;;;0.20;39.40;;;;;;5079433;28;20908;-53
2022/03/02 05:56:16;;;;;;;26.67;19.47;;;0.20;42.20;;;;;;5091177;28;20503;-53
2022/03/02 05:58:43;;;;;;;29.70;19.70;;;0.20;34.00;;;;;;5074020;28;20479;-53
2022/03/02 06:01:10;;;;;;;30.60;20.20;;;0.20;31.80;;;;;;5073514;28;20457;-52
2022/03/02 06:03:36;;;;;;;35.03;21.47;;;0.20;30.30;;;;;;5073545;28;20461;-52
2022/03/02 06:06:05;;;;;;;32.67;21.70;;;0.20;99.90;;;;;;5063414;28;20472;-53
2022/03/02 06:08:31;;;;;;;29.90;19.57;;;0.20;26.90;;;;;;5068660;28;21054;-52
2022/03/02 06:10:58;;;;;;;34.70;20.90;;;0.20;28.50;;;;;;5063421;28;20441;-52
2022/03/02 06:13:25;;;;;;;31.20;19.70;;;0.20;29.00;;;;;;5066746;28;20531;-53
2022/03/02 06:15:52;;;;;;;30.13;18.97;;;0.30;32.70;;;;;;5066691;28;21003;-53
2022/03/02 06:18:19;;;;;;;30.60;19.60;;;0.30;41.90;;;;;;5071684;28;20930;-58
2022/03/02 06:20:51;;;;;;;30.57;18.50;;;0.40;35.40;;;;;;5062569;28;21447;-53
2022/03/02 06:23:20;;;;;;;26.83;18.23;;;0.40;40.90;;;;;;5070985;28;20517;-52
2022/03/02 06:25:47;;;;;;;34.20;20.53;;;0.40;40.90;;;;;;5067880;28;20528;-53
2022/03/02 06:28:14;;;;;;;30.30;19.90;;;0.40;43.40;;;;;;5072146;28;20485;-53
2022/03/02 06:30:41;;;;;;;28.77;18.90;;;0.40;42.10;;;;;;5066908;28;20452;-53
2022/03/02 06:33:08;;;;;;;31.00;21.03;;;0.40;42.20;;;;;;5059419;28;21328;-53
2022/03/02 06:35:35;;;;;;;31.27;20.30;;;0.40;41.60;;;;;;5066153;28;20502;-54
2022/03/02 06:38:02;;;;;;;28.13;18.93;;;0.40;42.20;;;;;;5066238;28;20440;-53
2022/03/02 06:40:30;;;;;;;30.70;22.27;;;0.40;38.00;;;;;;5069706;28;20446;-53
2022/03/02 06:43:01;;;;;;;38.80;21.03;;;0.40;39.70;;;;;;5057380;28;20457;-53
2022/03/02 06:45:40;;;;;;;32.27;21.07;;;0.50;38.30;;;;;;5058513;28;20441;-52
2022/03/02 06:48:11;;;;;;;30.93;20.00;;;0.40;34.50;;;;;;5054991;28;20527;-52
2022/03/02 06:50:39;;;;;;;31.80;20.00;;;0.50;41.80;;;;;;5070089;28;20793;-52
2022/03/02 06:53:15;;;;;;;41.60;22.07;;;0.60;37.70;;;;;;5067366;28;20472;-52
2022/03/02 06:55:45;;;;;;;29.00;21.27;;;0.50;37.00;;;;;;5065939;28;20571;-51
2022/03/02 06:58:14;;;;;;;33.67;19.80;;;0.50;39.20;;;;;;5059158;28;20507;-52
2022/03/02 07:00:47;;;;;;;36.10;22.50;;;0.60;43.40;;;;;;5066984;28;20532;-52
2022/03/02 07:03:18;;;;;;;29.30;21.23;;;0.60;48.00;;;;;;5067730;28;20465;-52
2022/03/02 07:05:47;;;;;;;30.10;19.57;;;0.70;49.00;;;;;;5065412;28;21015;-52
2022/03/02 07:08:15;;;;;;;45.03;21.50;;;0.70;49.90;;;;;;5064751;28;20481;-53
2022/03/02 07:10:43;;;;;;;32.03;21.80;;;0.80;57.30;;;;;;5066041;28;20441;-52
2022/03/02 07:13:10;;;;;;;33.57;21.10;;;0.80;57.50;;;;;;5071919;28;20469;-52
2022/03/02 07:15:36;;;;;;;34.60;23.40;;;0.90;52.20;;;;;;5072602;28;20894;-52
2022/03/02 07:18:07;;;;;;;35.87;23.37;;;1.00;62.50;;;;;;5072028;28;20502;-52
2022/03/02 07:20:39;;;;;;;33.67;21.70;;;1.00;66.20;;;;;;5071533;28;20449;-53
2022/03/02 07:23:12;;;;;;;34.87;21.23;;;1.20;66.40;;;;;;5072844;28;20529;-53
2022/03/02 07:25:41;;;;;;;35.07;23.60;;;1.30;71.50;;;;;;5066187;28;20456;-54
2022/03/02 07:28:11;;;;;;;38.40;24.10;;;1.20;69.30;;;;;;5071338;28;20507;-52
2022/03/02 07:30:39;;;;;;;30.27;22.47;;;1.40;69.40;;;;;;5071231;28;20453;-53
2022/03/02 07:33:06;;;;;;;33.33;22.73;;;1.40;69.70;;;;;;5071545;28;21160;-53
2022/03/02 07:35:34;;;;;;;41.87;23.57;;;1.50;73.00;;;;;;5071343;28;20449;-52
2022/03/02 07:38:02;;;;;;;33.30;23.80;;;1.60;75.50;;;;;;5062973;28;20504;-52
2022/03/02 07:40:29;;;;;;;34.33;24.70;;;1.70;84.50;;;;;;5065750;28;20595;-52
2022/03/02 07:42:55;;;;;;;47.03;24.80;;;1.80;85.70;;;;;;5067423;28;20469;-52
2022/03/02 07:45:23;;;;;;;33.73;23.00;;;1.90;86.30;;;;;;5071229;28;20453;-51
2022/03/02 07:47:50;;;;;;;36.10;23.40;;;2.00;91.40;;;;;;5071263;28;20942;-52
2022/03/02 07:50:17;;;;;;;32.53;24.10;;;2.10;92.10;;;;;;5070364;28;20717;-52
2022/03/02 07:52:47;;;;;;;34.30;23.60;;;2.20;97.00;;;;;;5071793;28;20506;-52
2022/03/02 07:55:17;;;;;;;35.97;24.30;;;2.40;93.20;;;;;;5063165;28;20445;-53
2022/03/02 07:57:45;;;;;;;37.57;25.67;;;2.40;99.90;;;;;;5063340;28;20488;-52
2022/03/02 08:00:13;;;;;;;39.00;25.53;;;2.60;99.90;;;;;;5064171;28;20488;-52
2022/03/02 08:02:42;;;;;;;44.17;28.27;;;2.80;99.90;;;;;;5062325;28;20504;-52
2022/03/02 08:05:09;;;;;;;47.67;24.17;;;3.10;99.90;;;;;;5059011;28;20465;-52
2022/03/02 08:07:36;;;;;;;38.17;26.60;;;3.70;99.90;;;;;;5062526;28;20461;-52
2022/03/02 08:10:05;;;;;;;38.10;25.63;;;3.70;99.90;;;;;;5055376;28;20484;-52
2022/03/02 08:12:32;;;;;;;40.83;24.80;;;4.00;99.90;;;;;;5065117;28;20960;-52
2022/03/02 08:15:00;;;;;;;42.77;24.77;;;4.20;99.90;;;;;;5064529;28;20883;-51
2022/03/02 08:17:26;;;;;;;31.47;22.80;;;4.40;99.90;;;;;;5059333;28;20539;-52
2022/03/02 08:19:54;;;;;;;32.10;22.40;;;4.60;99.90;;;;;;5066540;28;20453;-52
2022/03/02 08:22:25;;;;;;;38.20;23.20;;;4.90;99.90;;;;;;5064220;28;20457;-52
2022/03/02 08:25:02;;;;;;;34.83;22.43;;;5.20;99.90;;;;;;5065583;28;20496;-51
2022/03/02 08:27:30;;;;;;;33.53;22.37;;;5.50;99.90;;;;;;5062047;28;20453;-53
2022/03/02 08:29:57;;;;;;;34.10;22.43;;;5.30;99.90;;;;;;5069438;28;20488;-51
2022/03/02 08:32:25;;;;;;;40.03;23.53;;;5.00;99.90;;;;;;5070798;28;20457;-51
2022/03/02 08:34:53;;;;;;;32.00;21.43;;;4.70;99.90;;;;;;5070771;28;20860;-51
2022/03/02 08:37:21;;;;;;;30.17;20.83;;;4.70;99.90;;;;;;5069348;28;21345;-51
2022/03/02 08:39:49;;;;;;;44.00;21.87;;;4.50;99.90;;;;;;5066322;28;20479;-51
2022/03/02 08:42:15;;;;;;;37.80;23.10;;;4.40;99.90;;;;;;5069443;28;20445;-51
2022/03/02 08:44:45;;;;;;;34.10;21.30;;;4.00;99.90;;;;;;5071877;28;20546;-52
2022/03/02 08:47:12;;;;;;;33.07;21.53;;;4.10;99.90;;;;;;5068708;28;20502;-51
2022/03/02 08:49:39;;;;;;;39.63;21.30;;;4.20;99.90;;;;;;5072730;28;20530;-51
2022/03/02 08:52:07;;;;;;;29.23;20.33;;;4.00;99.90;;;;;;5074147;28;20844;-51
2022/03/02 08:54:39;;;;;;;33.17;22.03;;;4.20;99.90;;;;;;5066850;28;20519;-51
2022/03/02 08:57:06;;;;;;;35.60;20.70;;;4.40;99.90;;;;;;5066753;28;20487;-51
2022/03/02 08:59:35;;;;;;;30.30;20.97;;;4.40;99.90;;;;;;5074565;28;20473;-51
2022/03/02 09:02:06;;;;;;;30.07;21.10;;;4.40;99.90;;;;;;5055964;28;20556;-51
2022/03/02 09:04:35;;;;;;;33.27;22.73;;;4.70;99.90;;;;;;5070232;28;20800;-51
2022/03/02 09:07:03;;;;;;;30.90;21.93;;;5.00;99.90;;;;;;5074795;28;20502;-51
2022/03/02 09:09:32;;;;;;;35.33;21.80;;;5.10;99.90;;;;;;5073836;28;20477;-51
2022/03/02 09:11:59;;;;;;;33.03;22.07;;;5.30;99.90;;;;;;5056761;28;20798;-51
2022/03/02 09:14:25;;;;;;;35.57;21.90;;;5.50;99.90;;;;;;5058375;28;20970;-51
2022/03/02 09:16:52;;;;;;;27.70;19.67;;;5.30;99.90;;;;;;5074028;28;20531;-52
2022/03/02 09:19:19;;;;;;;30.83;18.87;;;5.20;99.90;;;;;;5074314;28;20437;-52
2022/03/02 09:21:46;;;;;;;36.23;20.17;;;5.40;99.90;;;;;;5072007;28;20486;-51
2022/03/02 09:24:13;;;;;;;34.73;20.20;;;5.40;99.90;;;;;;5074217;28;20546;-51
2022/03/02 09:26:41;;;;;;;32.43;20.63;;;5.60;99.90;;;;;;5074100;28;21007;-50
2022/03/02 09:29:08;;;;;;;35.63;21.97;;;5.80;99.90;;;;;;5073832;28;20529;-51
2022/03/02 09:31:36;;;;;;;28.80;20.60;;;6.00;99.90;;;;;;5070010;28;21005;-51
2022/03/02 09:34:07;;;;;;;34.53;20.07;;;6.10;99.90;;;;;;5069932;28;20461;-52
2022/03/02 09:36:36;;;;;;;29.53;19.93;;;6.00;99.90;;;;;;5074001;28;20476;-50
2022/03/02 09:39:05;;;;;;;30.83;19.27;;;5.90;99.90;;;;;;5072611;28;20445;-51
2022/03/02 09:41:41;;;;;;;36.03;20.27;;;6.00;99.90;;;;;;5070390;28;20445;-51
2022/03/02 09:44:12;;;;;;;32.80;19.70;;;6.10;99.90;;;;;;5071426;28;20498;-52
2022/03/02 09:46:40;;;;;;;34.10;20.40;;;6.30;99.90;;;;;;5073536;28;20473;-51
2022/03/02 09:49:08;;;;;;;39.40;20.00;;;6.30;99.90;;;;;;5073858;28;20476;-51
2022/03/02 09:51:36;;;;;;;29.47;18.90;;;6.40;99.90;;;;;;5074392;28;20453;-51
2022/03/02 09:54:05;;;;;;;42.43;21.77;;;6.40;99.90;;;;;;5073840;28;20529;-51
2022/03/02 09:56:35;;;;;;;38.77;20.70;;;6.40;99.90;;;;;;5070848;28;20452;-52
2022/03/02 09:59:04;;;;;;;55.73;19.67;;;6.70;99.90;;;;;;5072972;28;20452;-52
2022/03/02 10:01:34;;;;;;;35.87;19.73;;;6.80;99.90;;;;;;5073891;28;20440;-51
2022/03/02 10:04:17;;;;;;;32.93;19.50;;;7.00;99.90;;;;;;5073609;28;21035;-52
2022/03/02 10:06:45;;;;;;;31.53;20.27;;;7.30;99.90;;;;;;5069447;28;20453;-50
2022/03/02 10:09:13;;;;;;;32.20;20.23;;;7.10;99.90;;;;;;5073702;28;20477;-51
2022/03/02 10:11:43;;;;;;;29.93;17.80;;;7.30;99.90;;;;;;5073278;28;20453;-51
2022/03/02 10:14:11;;;;;;;23.67;17.53;;;7.20;99.90;;;;;;5062126;28;20464;-51
2022/03/02 10:16:43;;;;;;;30.13;17.90;;;7.20;99.90;;;;;;5072729;28;20494;-51
2022/03/02 10:19:20;;;;;;;38.40;18.23;;;7.50;99.90;;;;;;5072620;28;20596;-51
2022/03/02 10:22:00;;;;;;;32.30;18.27;;;7.80;99.90;;;;;;5062892;28;20998;-51
2022/03/02 10:24:30;;;;;;;24.97;17.60;;;8.00;99.90;;;;;;5063375;28;20915;-52
2022/03/02 10:27:02;;;;;;;34.73;18.57;;;8.20;99.90;;;;;;5072509;28;20865;-51
2022/03/02 10:29:31;;;;;;;31.33;20.03;;;8.90;99.90;;;;;;5072395;28;20477;-51
2022/03/02 10:32:08;;;;;;;54.13;18.07;;;9.10;99.90;;;;;;5067941;28;20499;-51
2022/03/02 10:34:37;;;;;;;26.17;17.50;;;8.90;99.90;;;;;;5063158;28;20481;-52
2022/03/02 10:37:24;;;;;;;24.07;16.10;;;9.00;99.90;;;;;;5068468;28;20450;-51
2022/03/02 10:39:57;;;;;;;30.93;17.80;;;9.70;99.90;;;;;;5070979;28;20970;-56
2022/03/02 10:42:28;;;;;;;23.30;15.13;;;9.70;99.90;;;;;;5070736;28;20449;-52
2022/03/02 10:45:04;;;;;;;21.97;16.50;;;9.50;99.90;;;;;;5064339;28;20472;-52
2022/03/02 10:47:34;;;;;;;25.70;14.70;;;9.00;99.90;;;;;;5070572;28;20510;-51
2022/03/02 10:50:02;;;;;;;24.53;15.90;;;8.70;99.90;;;;;;5072476;28;20468;-51
2022/03/02 10:52:29;;;;;;;21.97;15.60;;;8.00;99.90;;;;;;5072477;28;20494;-51
2022/03/02 10:54:57;;;;;;;24.03;16.40;;;8.70;99.90;;;;;;5072308;28;20522;-51
2022/03/02 10:57:26;;;;;;;22.57;14.70;;;8.90;99.90;;;;;;5071318;28;20878;-51
2022/03/02 10:59:54;;;;;;;22.27;16.33;;;8.50;99.90;;;;;;5072034;28;20437;-51
2022/03/02 11:02:23;;;;;;;26.10;15.27;;;8.20;99.90;;;;;;5066420;28;20582;-51
2022/03/02 11:04:54;;;;;;;26.70;14.73;;;8.50;99.90;;;;;;5072168;28;20461;-50
2022/03/02 11:07:21;;;;;;;21.00;14.93;;;8.50;99.90;;;;;;5072793;28;20475;-51
2022/03/02 11:09:50;;;;;;;22.00;14.60;;;8.40;99.90;;;;;;5072011;28;20479;-51
2022/03/02 11:12:18;;;;;;;23.17;15.27;;;8.40;99.90;;;;;;5071716;28;20498;-51
2022/03/02 11:14:54;;;;;;;18.07;14.03;;;8.10;99.90;;;;;;5071272;28;20473;-51
2022/03/02 11:17:21;;;;;;;23.93;14.10;;;7.80;99.90;;;;;;5070488;28;20950;-51
2022/03/02 11:19:48;;;;;;;23.00;14.03;;;7.70;99.90;;;;;;5071119;28;20449;-52
2022/03/02 11:22:18;;;;;;;22.30;15.70;;;7.90;99.90;;;;;;5070499;28;20837;-51
2022/03/02 11:24:45;;;;;;;22.07;14.77;;;8.60;99.90;;;;;;5056595;28;20550;-51
2022/03/02 11:27:27;;;;;;;28.70;15.07;;;9.30;99.90;;;;;;5061847;28;20502;-51
2022/03/02 11:30:02;;;;;;;24.57;15.80;;;8.20;99.90;;;;;;5071035;28;20472;-50
2022/03/02 11:32:32;;;;;;;22.83;15.63;;;9.10;99.90;;;;;;5071414;28;20506;-51
2022/03/02 11:35:00;;;;;;;26.47;13.60;;;10.80;99.90;;;;;;5069017;28;20814;-51
2022/03/02 11:37:28;;;;;;;19.27;13.20;;;10.50;99.90;;;;;;5071392;28;20445;-50
2022/03/02 11:39:55;;;;;;;26.27;15.60;;;9.90;99.90;;;;;;5072099;28;20445;-51
2022/03/02 11:42:28;;;;;;;17.27;13.63;;;8.90;99.90;;;;;;5071368;28;20450;-51
2022/03/02 11:44:57;;;;;;;20.23;14.20;;;8.40;99.90;;;;;;5070556;28;20590;-51
2022/03/02 11:47:24;;;;;;;21.10;13.87;;;9.30;99.90;;;;;;5069912;28;20473;-51
2022/03/02 11:49:53;;;;;;;18.33;14.20;;;9.90;99.90;;;;;;5071560;28;20476;-51
2022/03/02 11:52:22;;;;;;;16.90;13.03;;;9.70;99.90;;;;;;5070099;28;20510;-51
2022/03/02 11:54:52;;;;;;;23.00;13.50;;;9.50;99.90;;;;;;5062468;28;20481;-51
2022/03/02 11:57:21;;;;;;;14.70;11.17;;;8.60;99.90;;;;;;5071828;28;20461;-51
2022/03/02 11:59:50;;;;;;;18.90;12.73;;;8.80;99.90;;;;;;5071427;28;20445;-51
2022/03/02 12:02:18;;;;;;;14.77;10.43;;;8.90;99.90;;;;;;5061752;28;20456;-51
2022/03/02 12:04:58;;;;;;;19.57;13.03;;;8.80;99.90;;;;;;5052080;28;20528;-51
2022/03/02 12:07:25;;;;;;;18.03;12.27;;;9.00;99.90;;;;;;5051776;28;20925;-51
2022/03/02 12:09:54;;;;;;;18.30;13.30;;;9.10;99.90;;;;;;5058386;28;20537;-51
2022/03/02 12:12:22;;;;;;;18.73;13.30;;;9.30;99.90;;;;;;5069954;28;20452;-52
2022/03/02 12:14:51;;;;;;;15.67;12.13;;;9.40;99.90;;;;;;5071600;28;20465;-52
2022/03/02 12:17:21;;;;;;;19.77;11.80;;;9.40;99.90;;;;;;5071188;28;20449;-51
2022/03/02 12:19:52;;;;;;;15.70;12.33;;;9.30;99.90;;;;;;5071291;28;20452;-51
2022/03/02 12:22:19;;;;;;;16.10;12.30;;;9.60;99.90;;;;;;5068300;28;20442;-52
2022/03/02 12:24:48;;;;;;;19.37;13.10;;;10.60;99.90;;;;;;5061551;28;20472;-51
2022/03/02 12:27:18;;;;;;;16.97;12.83;;;10.80;99.90;;;;;;5074983;28;20451;-52
2022/03/02 12:29:52;;;;;;;20.80;11.77;;;11.70;99.90;;;;;;5075128;28;20502;-51
2022/03/02 12:32:19;;;;;;;22.57;11.83;;;11.40;99.90;;;;;;5073145;28;20476;-51
2022/03/02 12:34:47;;;;;;;17.40;12.47;;;10.60;99.90;;;;;;5074849;28;20889;-51
2022/03/02 12:37:15;;;;;;;18.90;12.83;;;11.80;99.90;;;;;;5075105;28;20934;-50
2022/03/02 12:39:43;;;;;;;17.43;12.57;;;12.00;99.90;;;;;;5053986;28;20471;-51